sensor_id;sensor_type;location;lat;lon;timestamp;temperature;humidity
78704;SHT31;68034;51.966;5.676;2023-03-01T14:56:50;18.1;22.9
78704;SHT31;68034;51.966;5.676;2023-03-01T14:59:23;18.0;24.1
78704;SHT31;68034;51.966;5.676;2023-03-01T15:01:56;18.0;25.1
78704;SHT31;68034;51.966;5.676;2023-03-01T15:04:28;18.0;24.0
78704;SHT31;68034;51.966;5.676;2023-03-01T15:07:01;18.0;25.2
78704;SHT31;68034;51.966;5.676;2023-03-01T15:09:34;18.1;26.2
78704;SHT31;68034;51.966;5.676;2023-03-01T15:12:34;18.3;23.6
78704;SHT31;68034;51.966;5.676;2023-03-01T15:15:22;18.4;23.2
78704;SHT31;68034;51.966;5.676;2023-03-01T15:17:59;18.5;23.5
78704;SHT31;68034;51.966;5.676;2023-03-01T15:20:32;18.5;23.1
78704;SHT31;68034;51.966;5.676;2023-03-01T15:23:04;18.6;22.4
78704;SHT31;68034;51.966;5.676;2023-03-01T15:25:34;18.7;23.5
78704;SHT31;68034;51.966;5.676;2023-03-01T15:28:19;18.8;24.7
78704;SHT31;68034;51.966;5.676;2023-03-01T15:30:56;18.8;22.6
78704;SHT31;68034;51.966;5.676;2023-03-01T15:33:37;18.9;22.0
78704;SHT31;68034;51.966;5.676;2023-03-01T15:36:32;18.9;21.7
78704;SHT31;68034;51.966;5.676;2023-03-01T15:41:47;19.1;21.3
78704;SHT31;68034;51.966;5.676;2023-03-01T15:44:23;18.9;22.0
78704;SHT31;68034;51.966;5.676;2023-03-01T15:46:52;18.9;21.0
78704;SHT31;68034;51.966;5.676;2023-03-01T15:49:30;18.8;21.0
78704;SHT31;68034;51.966;5.676;2023-03-01T15:52:02;18.7;21.8
78704;SHT31;68034;51.966;5.676;2023-03-01T15:54:34;18.6;21.6
78704;SHT31;68034;51.966;5.676;2023-03-01T15:57:09;18.5;21.0
78704;SHT31;68034;51.966;5.676;2023-03-01T15:59:42;18.4;21.5
78704;SHT31;68034;51.966;5.676;2023-03-01T16:02:12;18.2;21.1
78704;SHT31;68034;51.966;5.676;2023-03-01T16:04:44;18.0;22.1
78704;SHT31;68034;51.966;5.676;2023-03-01T16:07:16;17.8;22.1
78704;SHT31;68034;51.966;5.676;2023-03-01T16:09:45;17.5;22.0
78704;SHT31;68034;51.966;5.676;2023-03-01T16:12:16;17.3;22.5
78704;SHT31;68034;51.966;5.676;2023-03-01T16:14:50;17.1;23.4
78704;SHT31;68034;51.966;5.676;2023-03-01T16:17:21;16.9;23.2
78704;SHT31;68034;51.966;5.676;2023-03-01T16:19:50;16.8;23.1
78704;SHT31;68034;51.966;5.676;2023-03-01T16:22:20;16.7;23.0
78704;SHT31;68034;51.966;5.676;2023-03-01T16:24:52;16.7;22.8
78704;SHT31;68034;51.966;5.676;2023-03-01T16:27:22;16.6;23.9
78704;SHT31;68034;51.966;5.676;2023-03-01T16:29:51;16.5;23.4
78704;SHT31;68034;51.966;5.676;2023-03-01T16:32:21;16.4;23.2
78704;SHT31;68034;51.966;5.676;2023-03-01T16:34:51;16.2;23.9
78704;SHT31;68034;51.966;5.676;2023-03-01T16:37:20;16.0;24.2
78704;SHT31;68034;51.966;5.676;2023-03-01T16:39:50;15.9;24.6
78704;SHT31;68034;51.966;5.676;2023-03-01T16:42:20;15.7;24.9
78704;SHT31;68034;51.966;5.676;2023-03-01T16:44:54;15.6;23.9
78704;SHT31;68034;51.966;5.676;2023-03-01T16:47:24;15.4;25.3
78704;SHT31;68034;51.966;5.676;2023-03-01T16:49:54;15.3;26.1
78704;SHT31;68034;51.966;5.676;2023-03-01T16:54:14;15.1;26.0
78704;SHT31;68034;51.966;5.676;2023-03-01T16:56:45;15.0;27.6
78704;SHT31;68034;51.966;5.676;2023-03-01T17:01:45;14.7;28.2
78704;SHT31;68034;51.966;5.676;2023-03-01T17:04:15;14.5;28.5
78704;SHT31;68034;51.966;5.676;2023-03-01T17:06:46;14.4;29.7
78704;SHT31;68034;51.966;5.676;2023-03-01T17:09:16;14.3;29.9
78704;SHT31;68034;51.966;5.676;2023-03-01T17:11:55;14.1;30.0
78704;SHT31;68034;51.966;5.676;2023-03-01T17:14:25;13.9;29.8
78704;SHT31;68034;51.966;5.676;2023-03-01T17:16:55;13.7;30.2
78704;SHT31;68034;51.966;5.676;2023-03-01T17:19:26;13.6;30.7
78704;SHT31;68034;51.966;5.676;2023-03-01T17:21:56;13.4;30.5
78704;SHT31;68034;51.966;5.676;2023-03-01T17:24:29;13.3;31.0
78704;SHT31;68034;51.966;5.676;2023-03-01T17:27:01;13.2;31.3
78704;SHT31;68034;51.966;5.676;2023-03-01T17:29:31;13.1;31.9
78704;SHT31;68034;51.966;5.676;2023-03-01T17:32:01;13.0;31.8
78704;SHT31;68034;51.966;5.676;2023-03-01T17:34:33;12.9;32.3
78704;SHT31;68034;51.966;5.676;2023-03-01T17:37:05;12.8;32.2
78704;SHT31;68034;51.966;5.676;2023-03-01T17:39:41;12.7;31.9
78704;SHT31;68034;51.966;5.676;2023-03-01T17:42:10;12.6;32.2
78704;SHT31;68034;51.966;5.676;2023-03-01T17:44:40;12.5;32.6
78704;SHT31;68034;51.966;5.676;2023-03-01T17:47:12;12.4;33.2
78704;SHT31;68034;51.966;5.676;2023-03-01T17:49:41;12.3;33.4
78704;SHT31;68034;51.966;5.676;2023-03-01T17:52:11;12.2;33.7
78704;SHT31;68034;51.966;5.676;2023-03-01T17:54:41;12.1;34.6
78704;SHT31;68034;51.966;5.676;2023-03-01T17:57:10;12.0;34.9
78704;SHT31;68034;51.966;5.676;2023-03-01T17:59:42;11.9;33.9
78704;SHT31;68034;51.966;5.676;2023-03-01T18:02:14;11.8;35.3
78704;SHT31;68034;51.966;5.676;2023-03-01T18:04:45;11.7;35.9
78704;SHT31;68034;51.966;5.676;2023-03-01T18:07:15;11.6;35.5
78704;SHT31;68034;51.966;5.676;2023-03-01T18:09:46;11.6;36.1
78704;SHT31;68034;51.966;5.676;2023-03-01T18:12:15;11.5;36.4
78704;SHT31;68034;51.966;5.676;2023-03-01T18:14:45;11.4;36.0
78704;SHT31;68034;51.966;5.676;2023-03-01T18:17:19;11.3;36.3
78704;SHT31;68034;51.966;5.676;2023-03-01T18:19:49;11.2;37.1
78704;SHT31;68034;51.966;5.676;2023-03-01T18:22:19;11.1;36.9
78704;SHT31;68034;51.966;5.676;2023-03-01T18:24:49;11.0;37.7
78704;SHT31;68034;51.966;5.676;2023-03-01T18:27:19;11.0;37.8
78704;SHT31;68034;51.966;5.676;2023-03-01T18:29:48;10.9;38.1
78704;SHT31;68034;51.966;5.676;2023-03-01T18:32:20;10.8;37.9
78704;SHT31;68034;51.966;5.676;2023-03-01T18:34:52;10.8;37.7
78704;SHT31;68034;51.966;5.676;2023-03-01T18:37:21;10.7;38.0
78704;SHT31;68034;51.966;5.676;2023-03-01T18:39:52;10.6;38.4
78704;SHT31;68034;51.966;5.676;2023-03-01T18:42:24;10.6;38.2
78704;SHT31;68034;51.966;5.676;2023-03-01T18:44:53;10.5;38.8
78704;SHT31;68034;51.966;5.676;2023-03-01T18:47:23;10.4;38.6
78704;SHT31;68034;51.966;5.676;2023-03-01T18:49:53;10.4;38.8
78704;SHT31;68034;51.966;5.676;2023-03-01T18:52:23;10.4;39.4
78704;SHT31;68034;51.966;5.676;2023-03-01T18:54:52;10.4;39.8
78704;SHT31;68034;51.966;5.676;2023-03-01T18:57:24;10.4;39.3
78704;SHT31;68034;51.966;5.676;2023-03-01T18:59:54;10.4;38.6
78704;SHT31;68034;51.966;5.676;2023-03-01T19:02:24;10.3;38.4
78704;SHT31;68034;51.966;5.676;2023-03-01T19:04:53;10.2;38.7
78704;SHT31;68034;51.966;5.676;2023-03-01T19:07:23;10.1;38.7
78704;SHT31;68034;51.966;5.676;2023-03-01T19:09:53;10.0;38.9
78704;SHT31;68034;51.966;5.676;2023-03-01T19:12:22;9.9;39.0
78704;SHT31;68034;51.966;5.676;2023-03-01T19:14:54;9.8;39.0
78704;SHT31;68034;51.966;5.676;2023-03-01T19:17:24;9.7;39.2
78704;SHT31;68034;51.966;5.676;2023-03-01T19:19:57;9.6;39.2
78704;SHT31;68034;51.966;5.676;2023-03-01T19:22:29;9.5;39.7
78704;SHT31;68034;51.966;5.676;2023-03-01T19:24:59;9.5;38.9
78704;SHT31;68034;51.966;5.676;2023-03-01T19:27:30;9.3;39.8
78704;SHT31;68034;51.966;5.676;2023-03-01T19:30:00;9.2;40.6
78704;SHT31;68034;51.966;5.676;2023-03-01T19:32:30;9.2;40.3
78704;SHT31;68034;51.966;5.676;2023-03-01T19:35:01;9.1;40.5
78704;SHT31;68034;51.966;5.676;2023-03-01T19:37:32;9.0;41.1
78704;SHT31;68034;51.966;5.676;2023-03-01T19:40:02;8.9;41.6
78704;SHT31;68034;51.966;5.676;2023-03-01T19:42:32;8.9;40.8
78704;SHT31;68034;51.966;5.676;2023-03-01T19:45:01;8.8;41.3
78704;SHT31;68034;51.966;5.676;2023-03-01T19:47:31;8.8;41.8
78704;SHT31;68034;51.966;5.676;2023-03-01T19:50:01;8.7;41.3
78704;SHT31;68034;51.966;5.676;2023-03-01T19:52:38;8.6;42.8
78704;SHT31;68034;51.966;5.676;2023-03-01T19:55:09;8.6;41.9
78704;SHT31;68034;51.966;5.676;2023-03-01T19:57:41;8.5;42.6
78704;SHT31;68034;51.966;5.676;2023-03-01T20:00:11;8.5;42.3
78704;SHT31;68034;51.966;5.676;2023-03-01T20:02:41;8.5;42.4
78704;SHT31;68034;51.966;5.676;2023-03-01T20:05:11;8.4;42.7
78704;SHT31;68034;51.966;5.676;2023-03-01T20:07:41;8.4;43.2
78704;SHT31;68034;51.966;5.676;2023-03-01T20:10:11;8.4;43.3
78704;SHT31;68034;51.966;5.676;2023-03-01T20:12:43;8.4;43.2
78704;SHT31;68034;51.966;5.676;2023-03-01T20:15:13;8.4;42.9
78704;SHT31;68034;51.966;5.676;2023-03-01T20:17:45;8.4;41.6
78704;SHT31;68034;51.966;5.676;2023-03-01T20:20:15;8.4;42.7
78704;SHT31;68034;51.966;5.676;2023-03-01T20:22:45;8.4;41.8
78704;SHT31;68034;51.966;5.676;2023-03-01T20:25:14;8.4;42.4
78704;SHT31;68034;51.966;5.676;2023-03-01T20:27:44;8.3;43.0
78704;SHT31;68034;51.966;5.676;2023-03-01T20:30:15;8.3;43.1
78704;SHT31;68034;51.966;5.676;2023-03-01T20:32:45;8.2;42.8
78704;SHT31;68034;51.966;5.676;2023-03-01T20:35:14;8.2;43.4
78704;SHT31;68034;51.966;5.676;2023-03-01T20:37:44;8.1;42.7
78704;SHT31;68034;51.966;5.676;2023-03-01T20:40:14;8.1;42.5
78704;SHT31;68034;51.966;5.676;2023-03-01T20:42:45;8.0;43.6
78704;SHT31;68034;51.966;5.676;2023-03-01T20:45:15;8.0;43.5
78704;SHT31;68034;51.966;5.676;2023-03-01T20:47:45;7.9;41.9
78704;SHT31;68034;51.966;5.676;2023-03-01T20:50:16;7.9;41.2
78704;SHT31;68034;51.966;5.676;2023-03-01T20:52:48;7.9;43.4
78704;SHT31;68034;51.966;5.676;2023-03-01T20:55:18;7.8;44.0
78704;SHT31;68034;51.966;5.676;2023-03-01T20:57:48;7.8;43.6
78704;SHT31;68034;51.966;5.676;2023-03-01T21:00:20;7.8;42.9
78704;SHT31;68034;51.966;5.676;2023-03-01T21:02:50;7.8;42.9
78704;SHT31;68034;51.966;5.676;2023-03-01T21:05:20;7.7;44.3
78704;SHT31;68034;51.966;5.676;2023-03-01T21:07:50;7.7;43.1
78704;SHT31;68034;51.966;5.676;2023-03-01T21:10:22;7.6;44.0
78704;SHT31;68034;51.966;5.676;2023-03-01T21:12:51;7.6;44.6
78704;SHT31;68034;51.966;5.676;2023-03-01T21:15:21;7.6;44.8
78704;SHT31;68034;51.966;5.676;2023-03-01T21:17:51;7.5;44.8
78704;SHT31;68034;51.966;5.676;2023-03-01T21:20:21;7.5;43.8
78704;SHT31;68034;51.966;5.676;2023-03-01T21:22:52;7.5;42.8
78704;SHT31;68034;51.966;5.676;2023-03-01T21:25:24;7.6;43.6
78704;SHT31;68034;51.966;5.676;2023-03-01T21:28:01;7.7;43.7
78704;SHT31;68034;51.966;5.676;2023-03-01T21:30:31;7.7;42.3
78704;SHT31;68034;51.966;5.676;2023-03-01T21:33:02;7.7;42.6
78704;SHT31;68034;51.966;5.676;2023-03-01T21:35:32;7.7;42.4
78704;SHT31;68034;51.966;5.676;2023-03-01T21:38:02;7.7;44.4
78704;SHT31;68034;51.966;5.676;2023-03-01T21:40:31;7.6;43.5
78704;SHT31;68034;51.966;5.676;2023-03-01T21:43:01;7.6;44.6
78704;SHT31;68034;51.966;5.676;2023-03-01T21:45:33;7.5;44.3
78704;SHT31;68034;51.966;5.676;2023-03-01T21:48:02;7.5;44.5
78704;SHT31;68034;51.966;5.676;2023-03-01T21:50:32;7.4;43.2
78704;SHT31;68034;51.966;5.676;2023-03-01T21:53:02;7.3;43.6
78704;SHT31;68034;51.966;5.676;2023-03-01T21:55:31;7.3;43.8
78704;SHT31;68034;51.966;5.676;2023-03-01T21:58:01;7.2;43.3
78704;SHT31;68034;51.966;5.676;2023-03-01T22:00:31;7.2;43.4
78704;SHT31;68034;51.966;5.676;2023-03-01T22:03:00;7.2;43.7
78704;SHT31;68034;51.966;5.676;2023-03-01T22:05:30;7.1;43.6
78704;SHT31;68034;51.966;5.676;2023-03-01T22:08:00;7.1;44.5
78704;SHT31;68034;51.966;5.676;2023-03-01T22:10:39;7.1;44.1
78704;SHT31;68034;51.966;5.676;2023-03-01T22:13:10;7.1;44.4
78704;SHT31;68034;51.966;5.676;2023-03-01T22:15:41;7.1;45.0
78704;SHT31;68034;51.966;5.676;2023-03-01T22:18:12;7.1;45.3
78704;SHT31;68034;51.966;5.676;2023-03-01T22:20:42;7.0;46.2
78704;SHT31;68034;51.966;5.676;2023-03-01T22:23:12;7.0;46.5
78704;SHT31;68034;51.966;5.676;2023-03-01T22:25:42;7.0;46.5
78704;SHT31;68034;51.966;5.676;2023-03-01T22:28:11;6.9;46.7
78704;SHT31;68034;51.966;5.676;2023-03-01T22:30:43;6.9;46.4
78704;SHT31;68034;51.966;5.676;2023-03-01T22:33:12;6.8;46.9
78704;SHT31;68034;51.966;5.676;2023-03-01T22:35:42;6.8;47.1
78704;SHT31;68034;51.966;5.676;2023-03-01T22:38:12;6.8;47.7
78704;SHT31;68034;51.966;5.676;2023-03-01T22:40:41;6.7;47.8
78704;SHT31;68034;51.966;5.676;2023-03-01T22:43:11;6.7;47.6
78704;SHT31;68034;51.966;5.676;2023-03-01T22:45:42;6.6;47.3
78704;SHT31;68034;51.966;5.676;2023-03-01T22:48:12;6.6;47.0
78704;SHT31;68034;51.966;5.676;2023-03-01T22:50:43;6.5;48.2
78704;SHT31;68034;51.966;5.676;2023-03-01T22:53:13;6.5;48.8
78704;SHT31;68034;51.966;5.676;2023-03-01T22:55:43;6.5;49.0
78704;SHT31;68034;51.966;5.676;2023-03-01T22:58:12;6.5;48.5
78704;SHT31;68034;51.966;5.676;2023-03-01T23:00:42;6.5;49.2
78704;SHT31;68034;51.966;5.676;2023-03-01T23:03:12;6.5;48.6
78704;SHT31;68034;51.966;5.676;2023-03-01T23:05:43;6.5;49.0
78704;SHT31;68034;51.966;5.676;2023-03-01T23:08:13;6.4;49.0
78704;SHT31;68034;51.966;5.676;2023-03-01T23:10:42;6.4;49.6
78704;SHT31;68034;51.966;5.676;2023-03-01T23:13:12;6.4;49.7
78704;SHT31;68034;51.966;5.676;2023-03-01T23:15:42;6.3;49.8
78704;SHT31;68034;51.966;5.676;2023-03-01T23:18:12;6.3;49.9
78704;SHT31;68034;51.966;5.676;2023-03-01T23:20:42;6.3;50.3
78704;SHT31;68034;51.966;5.676;2023-03-01T23:23:11;6.2;50.7
78704;SHT31;68034;51.966;5.676;2023-03-01T23:25:55;6.2;50.9
78704;SHT31;68034;51.966;5.676;2023-03-01T23:28:27;6.2;50.8
78704;SHT31;68034;51.966;5.676;2023-03-01T23:31:00;6.2;51.7
78704;SHT31;68034;51.966;5.676;2023-03-01T23:33:31;6.1;51.3
78704;SHT31;68034;51.966;5.676;2023-03-01T23:36:05;6.1;51.7
78704;SHT31;68034;51.966;5.676;2023-03-01T23:38:37;6.1;52.2
78704;SHT31;68034;51.966;5.676;2023-03-01T23:41:09;6.1;52.8
78704;SHT31;68034;51.966;5.676;2023-03-01T23:43:42;6.0;52.7
78704;SHT31;68034;51.966;5.676;2023-03-01T23:46:13;6.0;53.2
78704;SHT31;68034;51.966;5.676;2023-03-01T23:48:44;6.0;53.6
78704;SHT31;68034;51.966;5.676;2023-03-01T23:51:16;6.0;54.0
78704;SHT31;68034;51.966;5.676;2023-03-01T23:53:48;6.0;54.8
78704;SHT31;68034;51.966;5.676;2023-03-01T23:56:27;6.0;54.7
78704;SHT31;68034;51.966;5.676;2023-03-01T23:58:59;6.0;54.8
